Time;durP1;ratioP1;P1;durP2;ratioP2;P2;SDS_P1;SDS_P2;PMS_P1;PMS_P2;Temp;Humidity;BMP_temperature;BMP_pressure;BME280_temperature;BME280_humidity;BME280_pressure;Samples;Min_cycle;Max_cycle;Signal;HPM_P1;HPM_P2
2022/01/09 00:02:53;;;;;;;0.20;0.10;;;5.70;97.80;;;;;;9190527;19;20018;-74
2022/01/09 00:05:58;;;;;;;0.88;0.10;;;5.70;97.80;;;;;;9189501;19;20017;-74
2022/01/09 00:09:07;;;;;;;0.20;0.20;;;5.70;97.80;;;;;;9186201;19;20014;-74
2022/01/09 00:12:15;;;;;;;0.20;0.20;;;5.70;97.80;;;;;;9189902;19;20475;-74
2022/01/09 00:15:20;;;;;;;0.10;0.10;;;5.70;97.80;;;;;;9190294;19;20014;-75
2022/01/09 00:18:25;;;;;;;0.10;0.10;;;5.70;97.80;;;;;;9184331;19;20017;-74
2022/01/09 00:21:34;;;;;;;0.00;0.00;;;5.70;97.80;;;;;;9184863;19;20014;-74
2022/01/09 00:24:39;;;;;;;0.10;0.10;;;5.70;97.80;;;;;;9186012;19;20015;-74
2022/01/09 00:27:48;;;;;;;0.35;0.20;;;5.70;97.80;;;;;;9184112;19;20039;-74
2022/01/09 00:30:53;;;;;;;0.10;0.10;;;5.70;97.80;;;;;;9183304;19;20492;-74
2022/01/09 00:33:58;;;;;;;0.03;0.03;;;5.60;97.70;;;;;;9182578;19;20021;-73
2022/01/09 00:37:08;;;;;;;0.20;0.17;;;5.60;97.80;;;;;;9183259;19;20015;-74
2022/01/09 00:40:15;;;;;;;0.10;0.10;;;5.70;97.80;;;;;;9184422;19;20116;-73
2022/01/09 00:43:30;;;;;;;0.20;0.10;;;5.70;97.80;;;;;;9184548;19;20020;-74
2022/01/09 00:46:39;;;;;;;0.10;0.10;;;5.70;97.80;;;;;;9185700;19;20508;-73
2022/01/09 00:49:44;;;;;;;0.10;0.10;;;5.70;97.80;;;;;;9184616;19;20007;-74
2022/01/09 00:52:49;;;;;;;0.10;0.10;;;5.70;97.80;;;;;;9183395;19;20019;-74
2022/01/09 00:55:54;;;;;;;0.20;0.20;;;5.70;97.80;;;;;;9187122;19;20010;-73
2022/01/09 00:59:04;;;;;;;0.10;0.10;;;5.70;97.80;;;;;;9185418;19;20022;-73
2022/01/09 01:02:11;;;;;;;0.20;0.20;;;5.70;97.80;;;;;;9184271;19;20472;-75
2022/01/09 01:05:17;;;;;;;0.10;0.10;;;5.70;97.80;;;;;;9185073;19;20485;-73
2022/01/09 01:08:26;;;;;;;0.40;0.20;;;5.70;97.80;;;;;;9183554;19;20025;-75
2022/01/09 01:11:31;;;;;;;0.20;0.20;;;5.70;97.80;;;;;;9185573;19;20021;-74
2022/01/09 01:14:39;;;;;;;0.50;0.20;;;5.80;97.80;;;;;;9184102;19;20035;-73
2022/01/09 01:17:44;;;;;;;0.38;0.20;;;5.70;97.70;;;;;;9184506;19;20014;-73
2022/01/09 01:20:50;;;;;;;0.40;0.30;;;5.80;97.80;;;;;;9187477;19;20022;-73
2022/01/09 01:23:55;;;;;;;0.22;0.22;;;5.80;97.70;;;;;;9184815;19;20022;-74
2022/01/09 01:27:03;;;;;;;0.38;0.30;;;5.70;97.70;;;;;;9183319;19;20015;-74
2022/01/09 01:30:20;;;;;;;0.30;0.30;;;5.70;97.70;;;;;;9184735;19;20022;-74
2022/01/09 01:33:30;;;;;;;0.30;0.30;;;5.80;97.80;;;;;;9184624;19;20086;-74
2022/01/09 01:36:39;;;;;;;0.30;0.30;;;5.80;97.70;;;;;;9186349;19;20017;-73
2022/01/09 01:39:47;;;;;;;0.32;0.30;;;5.70;97.70;;;;;;9185281;19;20468;-73
2022/01/09 01:42:59;;;;;;;0.50;0.50;;;5.70;97.70;;;;;;9184180;19;20011;-74
2022/01/09 01:46:20;;;;;;;0.60;0.60;;;5.70;97.80;;;;;;9182453;19;20108;-75
2022/01/09 01:49:25;;;;;;;0.40;0.40;;;5.70;97.70;;;;;;9185477;19;20018;-74
2022/01/09 01:52:36;;;;;;;0.40;0.40;;;5.70;97.70;;;;;;9185452;19;20053;-74
2022/01/09 01:55:52;;;;;;;0.57;0.57;;;5.70;97.70;;;;;;9183610;19;20018;-74
2022/01/09 01:58:57;;;;;;;0.55;0.55;;;5.70;97.70;;;;;;9184324;19;20029;-73
2022/01/09 02:02:06;;;;;;;0.57;0.50;;;5.70;97.70;;;;;;9182038;19;20487;-74
2022/01/09 02:05:13;;;;;;;0.68;0.68;;;5.80;97.80;;;;;;9182527;19;20018;-74
2022/01/09 02:08:18;;;;;;;0.55;0.55;;;5.70;97.70;;;;;;9180928;19;20017;-75
2022/01/09 02:11:27;;;;;;;1.20;0.70;;;5.80;97.70;;;;;;9182109;19;20014;-74
2022/01/09 02:14:37;;;;;;;0.50;0.50;;;5.70;97.70;;;;;;9177731;19;20082;-74
2022/01/09 02:17:48;;;;;;;0.60;0.60;;;5.80;97.80;;;;;;9181352;19;20487;-74
2022/01/09 02:20:56;;;;;;;0.85;0.85;;;5.80;97.70;;;;;;9180858;19;20015;-74
2022/01/09 02:24:06;;;;;;;0.43;0.43;;;5.80;97.70;;;;;;9182542;19;20077;-74
2022/01/09 02:27:13;;;;;;;1.35;0.70;;;5.80;97.70;;;;;;9182988;19;20018;-74
2022/01/09 02:30:19;;;;;;;0.63;0.52;;;5.80;97.70;;;;;;9180698;19;20010;-74
2022/01/09 02:33:26;;;;;;;0.52;0.52;;;5.80;97.80;;;;;;9182095;19;20011;-74
2022/01/09 02:36:36;;;;;;;1.00;0.70;;;5.80;97.80;;;;;;9183181;19;20349;-74
2022/01/09 02:39:41;;;;;;;0.60;0.60;;;5.80;97.80;;;;;;9184515;19;20036;-74
2022/01/09 02:42:47;;;;;;;1.40;0.90;;;5.80;97.80;;;;;;9184230;19;20469;-74
2022/01/09 02:45:58;;;;;;;1.13;0.80;;;5.80;97.80;;;;;;9181933;19;20025;-74
2022/01/09 02:49:08;;;;;;;1.02;0.90;;;5.80;97.80;;;;;;9184576;19;20014;-75
2022/01/09 02:52:29;;;;;;;0.73;0.70;;;5.80;97.80;;;;;;9182365;19;20338;-74
2022/01/09 02:55:35;;;;;;;0.63;0.60;;;5.80;97.80;;;;;;9180378;19;20085;-75
2022/01/09 02:58:41;;;;;;;0.82;0.82;;;5.80;97.80;;;;;;9178588;19;20014;-72
2022/01/09 03:01:46;;;;;;;0.60;0.60;;;5.80;97.80;;;;;;9178768;19;20018;-72
2022/01/09 03:04:51;;;;;;;1.08;0.73;;;5.80;97.80;;;;;;9180209;19;20021;-72
2022/01/09 03:07:59;;;;;;;0.60;0.60;;;5.90;97.80;;;;;;9178565;19;20623;-74
2022/01/09 03:11:04;;;;;;;0.70;0.70;;;5.80;97.80;;;;;;9180912;19;20786;-73
2022/01/09 03:14:09;;;;;;;0.50;0.50;;;5.80;97.80;;;;;;9179760;19;20350;-73
2022/01/09 03:17:14;;;;;;;0.50;0.50;;;5.90;97.80;;;;;;9179807;19;20050;-73
2022/01/09 03:20:26;;;;;;;1.02;0.60;;;5.90;97.80;;;;;;9179038;19;20021;-73
2022/01/09 03:23:34;;;;;;;0.70;0.70;;;5.90;97.80;;;;;;9179369;19;20086;-72
2022/01/09 03:26:39;;;;;;;0.50;0.50;;;5.90;97.80;;;;;;9185706;19;20370;-72
2022/01/09 03:29:44;;;;;;;0.50;0.50;;;5.90;97.80;;;;;;9189351;19;20483;-75
2022/01/09 03:32:51;;;;;;;0.60;0.60;;;5.90;97.80;;;;;;9189138;19;20031;-72
2022/01/09 03:35:56;;;;;;;0.68;0.60;;;5.90;97.90;;;;;;9188520;19;20048;-73
2022/01/09 03:39:03;;;;;;;0.98;0.40;;;5.90;97.90;;;;;;9189098;19;20015;-73
2022/01/09 03:42:09;;;;;;;0.73;0.30;;;5.90;97.90;;;;;;9189714;19;20349;-73
2022/01/09 03:45:14;;;;;;;0.32;0.30;;;5.90;97.90;;;;;;9189501;19;20015;-75
2022/01/09 03:48:21;;;;;;;0.60;0.50;;;5.90;97.90;;;;;;9190951;19;20015;-75
2022/01/09 03:51:32;;;;;;;1.90;0.70;;;6.00;97.90;;;;;;9190724;19;20022;-74
2022/01/09 03:54:40;;;;;;;0.90;0.47;;;6.00;97.90;;;;;;9186129;19;20013;-75
2022/01/09 03:57:46;;;;;;;1.13;0.77;;;6.00;97.90;;;;;;9189382;19;20021;-74
2022/01/09 04:01:02;;;;;;;2.15;0.85;;;6.00;97.90;;;;;;9190076;19;20014;-75
2022/01/09 04:04:11;;;;;;;2.00;0.90;;;6.00;98.00;;;;;;9190732;19;20052;-75
2022/01/09 04:07:17;;;;;;;4.78;1.10;;;6.00;98.00;;;;;;9187042;19;20010;-74
2022/01/09 04:10:28;;;;;;;5.57;1.55;;;6.10;98.00;;;;;;9185817;19;20018;-75
2022/01/09 04:13:39;;;;;;;5.82;1.50;;;6.10;98.00;;;;;;9190466;19;20018;-75
2022/01/09 04:16:45;;;;;;;6.68;1.35;;;6.10;98.10;;;;;;9185499;19;20019;-74
2022/01/09 04:19:50;;;;;;;6.47;1.40;;;6.20;98.10;;;;;;9187363;19;20086;-73
2022/01/09 04:22:56;;;;;;;6.95;1.70;;;6.20;98.10;;;;;;9186269;19;20017;-74
2022/01/09 04:26:03;;;;;;;9.23;1.48;;;6.20;98.10;;;;;;9185080;19;20014;-75
2022/01/09 04:29:09;;;;;;;7.97;1.80;;;6.30;98.10;;;;;;9185622;19;20353;-73
2022/01/09 04:32:14;;;;;;;9.25;1.92;;;6.30;98.20;;;;;;9186918;19;20366;-74
2022/01/09 04:35:19;;;;;;;8.18;1.67;;;6.30;98.20;;;;;;9185799;19;20006;-74
2022/01/09 04:38:25;;;;;;;7.97;1.98;;;6.40;98.20;;;;;;9185250;19;20361;-75
2022/01/09 04:41:32;;;;;;;8.35;2.55;;;6.40;98.20;;;;;;9185605;19;20101;-76
2022/01/09 04:44:38;;;;;;;6.38;1.55;;;6.40;98.20;;;;;;9185858;19;20015;-74
2022/01/09 04:47:46;;;;;;;10.57;2.20;;;6.40;98.20;;;;;;9184196;19;20011;-74
2022/01/09 04:50:53;;;;;;;6.82;1.83;;;6.50;98.20;;;;;;9185565;19;20018;-74
2022/01/09 04:53:58;;;;;;;7.93;1.90;;;6.50;98.20;;;;;;9185845;19;20794;-74
2022/01/09 04:57:07;;;;;;;8.23;1.95;;;6.50;98.20;;;;;;9186198;19;20017;-74
2022/01/09 05:00:13;;;;;;;8.07;1.85;;;6.60;98.20;;;;;;9187033;19;20484;-74
2022/01/09 05:03:19;;;;;;;7.40;1.83;;;6.60;98.20;;;;;;9186669;19;20019;-74
2022/01/09 05:06:25;;;;;;;5.30;1.73;;;6.70;98.30;;;;;;9184786;19;20018;-74
2022/01/09 05:09:30;;;;;;;7.38;1.67;;;6.70;98.30;;;;;;9184998;19;20473;-74
2022/01/09 05:12:38;;;;;;;5.47;1.60;;;6.70;98.30;;;;;;9188125;19;20133;-74
2022/01/09 05:15:44;;;;;;;9.40;1.80;;;6.70;98.30;;;;;;9186192;19;20014;-74
2022/01/09 05:18:55;;;;;;;5.38;1.73;;;6.70;98.20;;;;;;9187911;19;20503;-74
2022/01/09 05:22:01;;;;;;;8.07;1.92;;;6.80;98.20;;;;;;9186638;19;20102;-74
2022/01/09 05:25:08;;;;;;;7.22;1.42;;;6.80;98.30;;;;;;9186114;19;20021;-74
2022/01/09 05:28:16;;;;;;;6.32;1.65;;;6.80;98.20;;;;;;9183608;19;20006;-74
2022/01/09 05:31:21;;;;;;;3.95;1.15;;;6.80;98.20;;;;;;9187756;19;20014;-74
2022/01/09 05:34:26;;;;;;;7.10;1.65;;;6.80;98.20;;;;;;9183253;19;20018;-74
2022/01/09 05:37:31;;;;;;;5.47;1.60;;;6.80;98.20;;;;;;9183079;19;20015;-74
2022/01/09 05:40:36;;;;;;;4.80;1.52;;;6.80;98.20;;;;;;9183817;19;20014;-75
2022/01/09 05:43:44;;;;;;;3.45;1.13;;;6.80;98.10;;;;;;9182216;19;20353;-74
2022/01/09 05:46:49;;;;;;;6.25;1.20;;;6.80;98.10;;;;;;9184531;19;20010;-74
2022/01/09 05:49:55;;;;;;;2.75;1.00;;;6.80;98.10;;;;;;9184140;19;20020;-74
2022/01/09 05:53:00;;;;;;;4.90;1.10;;;6.90;98.10;;;;;;9180460;19;20021;-73
2022/01/09 05:56:08;;;;;;;3.85;0.80;;;6.80;98.10;;;;;;9182242;19;20018;-74
2022/01/09 05:59:16;;;;;;;3.85;1.33;;;6.80;98.10;;;;;;9184844;19;20007;-75
2022/01/09 06:02:21;;;;;;;4.97;1.63;;;6.80;98.10;;;;;;9184594;19;20014;-75
2022/01/09 06:05:26;;;;;;;4.18;0.90;;;6.80;98.00;;;;;;9183311;19;20019;-74
2022/01/09 06:08:31;;;;;;;5.68;1.05;;;6.80;98.00;;;;;;9181598;19;20010;-75
2022/01/09 06:11:37;;;;;;;5.00;1.02;;;6.80;98.00;;;;;;9182109;19;20025;-75
2022/01/09 06:14:45;;;;;;;1.23;0.43;;;6.80;98.00;;;;;;9182671;19;20010;-75
2022/01/09 06:17:50;;;;;;;3.95;0.93;;;6.80;98.00;;;;;;9184857;19;20013;-73
2022/01/09 06:20:56;;;;;;;2.95;0.95;;;6.80;98.00;;;;;;9181695;19;20416;-74
2022/01/09 06:24:01;;;;;;;2.08;0.80;;;6.80;98.00;;;;;;9180292;19;20518;-75
2022/01/09 06:27:08;;;;;;;2.88;0.70;;;6.70;97.90;;;;;;9182103;19;20011;-73
2022/01/09 06:30:16;;;;;;;3.08;0.85;;;6.70;97.90;;;;;;9183139;19;20010;-74
2022/01/09 06:33:21;;;;;;;0.75;0.47;;;6.70;97.90;;;;;;9183646;19;20388;-74
2022/01/09 06:36:27;;;;;;;2.85;1.10;;;6.70;97.90;;;;;;9184374;19;20381;-74
2022/01/09 06:39:32;;;;;;;1.60;0.70;;;6.70;97.90;;;;;;9184233;19;20013;-74
2022/01/09 06:42:38;;;;;;;2.55;0.88;;;6.70;97.90;;;;;;9183418;19;20019;-74
2022/01/09 06:45:46;;;;;;;1.63;0.47;;;6.70;97.90;;;;;;9183644;19;20015;-75
2022/01/09 06:48:51;;;;;;;2.33;0.90;;;6.60;97.90;;;;;;9181024;19;20006;-73
2022/01/09 06:51:56;;;;;;;2.92;0.90;;;6.60;97.90;;;;;;9181121;19;20015;-75
2022/01/09 06:55:04;;;;;;;1.92;0.60;;;6.60;97.90;;;;;;9178987;19;20026;-74
2022/01/09 06:58:09;;;;;;;3.03;0.80;;;6.60;97.90;;;;;;9180862;19;20077;-74
2022/01/09 07:01:17;;;;;;;3.35;1.05;;;6.60;97.90;;;;;;9178628;19;20066;-73
2022/01/09 07:04:22;;;;;;;3.53;1.15;;;6.60;97.90;;;;;;9181618;19;20019;-74
2022/01/09 07:07:27;;;;;;;1.52;0.77;;;6.60;97.90;;;;;;9179327;19;20018;-74
2022/01/09 07:10:33;;;;;;;3.95;1.23;;;6.50;97.80;;;;;;9183536;19;20011;-74
2022/01/09 07:13:38;;;;;;;2.55;0.98;;;6.50;97.80;;;;;;9179346;19;20010;-73
2022/01/09 07:16:46;;;;;;;4.55;1.20;;;6.50;97.80;;;;;;9180957;19;20022;-74
2022/01/09 07:19:51;;;;;;;4.25;1.20;;;6.50;97.80;;;;;;9179425;19;20029;-73
2022/01/09 07:23:04;;;;;;;3.72;1.05;;;6.50;97.90;;;;;;9178935;19;20027;-74
2022/01/09 07:26:10;;;;;;;3.53;0.85;;;6.50;97.90;;;;;;9179940;19;20025;-75
2022/01/09 07:29:15;;;;;;;6.53;0.80;;;6.50;97.90;;;;;;9178918;19;20011;-74
2022/01/09 07:32:23;;;;;;;3.92;0.98;;;6.50;97.90;;;;;;9179545;19;20072;-74
2022/01/09 07:35:29;;;;;;;7.65;1.25;;;6.50;97.90;;;;;;9180773;19;20037;-74
2022/01/09 07:38:34;;;;;;;4.90;1.10;;;6.50;97.90;;;;;;9180368;19;20007;-74
2022/01/09 07:41:40;;;;;;;3.28;0.90;;;6.50;97.90;;;;;;9180559;19;20014;-75
2022/01/09 07:44:45;;;;;;;2.40;0.70;;;6.50;97.90;;;;;;9181505;19;20558;-74
2022/01/09 07:47:54;;;;;;;3.42;0.90;;;6.50;97.80;;;;;;9180089;19;20472;-74
2022/01/09 07:50:59;;;;;;;2.15;1.08;;;6.50;97.80;;;;;;9180184;19;20015;-76
2022/01/09 07:54:05;;;;;;;2.55;0.82;;;6.50;97.80;;;;;;9178101;19;20349;-74
2022/01/09 07:57:10;;;;;;;3.50;0.85;;;6.40;97.80;;;;;;9181342;19;20472;-74
2022/01/09 08:00:16;;;;;;;1.98;1.00;;;6.50;97.90;;;;;;9181319;19;20014;-74
2022/01/09 08:03:25;;;;;;;2.38;1.00;;;6.50;97.90;;;;;;9182345;19;20015;-74
2022/01/09 08:06:30;;;;;;;3.38;0.93;;;6.50;97.90;;;;;;9181641;19;20018;-74
2022/01/09 08:09:35;;;;;;;2.78;0.98;;;6.40;97.80;;;;;;9178182;19;20014;-74
2022/01/09 08:12:41;;;;;;;4.35;1.33;;;6.40;97.80;;;;;;9185214;19;20010;-74
2022/01/09 08:15:46;;;;;;;2.97;0.98;;;6.40;97.80;;;;;;9189636;19;20018;-75
2022/01/09 08:18:55;;;;;;;3.55;1.13;;;6.50;97.90;;;;;;9185912;19;20019;-75
2022/01/09 08:22:00;;;;;;;2.58;1.15;;;6.40;97.80;;;;;;9186344;19;20472;-75
2022/01/09 08:25:06;;;;;;;3.40;0.90;;;6.40;97.80;;;;;;9187539;19;20011;-74
2022/01/09 08:28:11;;;;;;;3.95;0.85;;;6.40;97.80;;;;;;9185424;19;20473;-75
2022/01/09 08:31:18;;;;;;;5.15;1.10;;;6.40;97.80;;;;;;9189282;19;20039;-74
2022/01/09 08:34:26;;;;;;;3.30;0.88;;;6.40;97.80;;;;;;9188684;19;20010;-74
2022/01/09 08:37:31;;;;;;;4.15;1.38;;;6.40;97.70;;;;;;9187878;19;20015;-74
2022/01/09 08:40:36;;;;;;;3.70;1.00;;;6.40;97.70;;;;;;9188674;19;20018;-74
2022/01/09 08:43:41;;;;;;;4.38;1.17;;;6.30;97.70;;;;;;9185884;19;20010;-75
2022/01/09 08:46:46;;;;;;;1.88;0.70;;;6.40;97.80;;;;;;9187044;19;20015;-74
2022/01/09 08:49:54;;;;;;;3.60;0.82;;;6.30;97.80;;;;;;9184511;19;20464;-76
2022/01/09 08:53:00;;;;;;;3.63;0.95;;;6.30;97.70;;;;;;9180703;19;20015;-74
2022/01/09 08:56:05;;;;;;;3.38;1.13;;;6.30;97.70;;;;;;9182512;19;20014;-75
2022/01/09 08:59:10;;;;;;;3.13;0.88;;;6.30;97.70;;;;;;9184614;19;20011;-74
2022/01/09 09:02:21;;;;;;;4.57;1.50;;;6.30;97.80;;;;;;9184429;19;20073;-74
2022/01/09 09:05:28;;;;;;;2.67;0.98;;;6.30;97.70;;;;;;9182938;19;20019;-74
2022/01/09 09:08:33;;;;;;;4.30;1.08;;;6.30;97.70;;;;;;9181547;19;20011;-75
2022/01/09 09:11:39;;;;;;;1.48;0.70;;;6.30;97.70;;;;;;9184309;19;20584;-74
2022/01/09 09:14:46;;;;;;;2.25;0.70;;;6.30;97.80;;;;;;9183850;19;20022;-75
2022/01/09 09:17:51;;;;;;;4.10;1.00;;;6.30;97.80;;;;;;9183456;19;20010;-75
2022/01/09 09:20:59;;;;;;;2.17;0.68;;;6.30;97.80;;;;;;9184277;19;20014;-75
2022/01/09 09:24:05;;;;;;;1.30;0.70;;;6.30;97.80;;;;;;9185249;19;20010;-75
2022/01/09 09:27:10;;;;;;;2.55;0.80;;;6.30;97.80;;;;;;9184356;19;20015;-75
2022/01/09 09:30:19;;;;;;;1.63;1.00;;;6.30;97.80;;;;;;9180071;19;20015;-75
2022/01/09 09:33:24;;;;;;;4.75;1.13;;;6.30;97.80;;;;;;9180571;19;20022;-75
2022/01/09 09:36:33;;;;;;;2.20;0.75;;;6.30;97.80;;;;;;9179702;19;20018;-75
2022/01/09 09:39:51;;;;;;;2.63;1.00;;;6.30;97.80;;;;;;9181528;19;20010;-75
2022/01/09 09:42:57;;;;;;;2.35;0.82;;;6.30;97.80;;;;;;9180474;19;20078;-75
2022/01/09 09:46:03;;;;;;;2.83;0.70;;;6.40;97.80;;;;;;9180980;19;20025;-75
2022/01/09 09:49:08;;;;;;;1.70;0.73;;;6.40;97.80;;;;;;9180731;19;20014;-74
2022/01/09 09:52:18;;;;;;;0.65;0.35;;;6.40;97.80;;;;;;9180634;19;20026;-74
2022/01/09 09:55:24;;;;;;;2.72;0.93;;;6.40;97.80;;;;;;9180294;19;20026;-75
2022/01/09 09:58:29;;;;;;;2.30;0.73;;;6.40;97.80;;;;;;9151887;19;20030;-75
2022/01/09 10:01:36;;;;;;;4.50;0.90;;;6.50;97.90;;;;;;9184134;19;20014;-75
2022/01/09 10:04:59;;;;;;;3.20;0.77;;;6.50;97.90;;;;;;9180713;19;20017;-74
2022/01/09 10:08:12;;;;;;;2.95;1.17;;;6.50;97.80;;;;;;9180112;19;20022;-73
2022/01/09 10:11:21;;;;;;;2.05;0.70;;;6.50;97.90;;;;;;9183482;19;20039;-74
2022/01/09 10:14:28;;;;;;;2.47;1.05;;;6.50;97.80;;;;;;9182302;19;20018;-74
2022/01/09 10:17:33;;;;;;;3.42;1.08;;;6.50;97.80;;;;;;9179650;19;20341;-74
2022/01/09 10:20:38;;;;;;;2.92;0.65;;;6.50;97.80;;;;;;9179098;19;20018;-74
2022/01/09 10:24:02;;;;;;;1.85;0.77;;;6.50;97.80;;;;;;9178867;19;20420;-74
2022/01/09 10:27:07;;;;;;;3.80;0.70;;;6.60;97.80;;;;;;9174066;19;20018;-74
2022/01/09 10:30:13;;;;;;;1.52;0.68;;;6.60;97.90;;;;;;9177698;19;20361;-74
2022/01/09 10:33:21;;;;;;;1.23;0.50;;;6.60;97.90;;;;;;9179781;19;20018;-74
2022/01/09 10:36:41;;;;;;;1.15;0.50;;;6.70;97.90;;;;;;9176211;19;20026;-74
2022/01/09 10:39:49;;;;;;;2.67;0.73;;;6.70;97.90;;;;;;9180159;19;20014;-74
2022/01/09 10:43:05;;;;;;;2.10;0.50;;;6.70;97.90;;;;;;9178643;19;20018;-74
2022/01/09 10:46:11;;;;;;;2.50;0.80;;;6.70;97.90;;;;;;9178711;19;20006;-74
2022/01/09 10:49:16;;;;;;;1.98;0.57;;;6.70;97.90;;;;;;9179548;19;20031;-74
2022/01/09 10:52:24;;;;;;;2.22;0.60;;;6.80;97.90;;;;;;9177285;19;20011;-74
2022/01/09 10:55:35;;;;;;;1.95;0.70;;;6.80;98.00;;;;;;9178752;19;20030;-74
2022/01/09 10:58:43;;;;;;;3.33;0.88;;;6.80;97.80;;;;;;9177412;19;20018;-74
2022/01/09 11:01:48;;;;;;;1.38;0.50;;;6.90;97.80;;;;;;9177728;19;20579;-74
2022/01/09 11:04:53;;;;;;;2.55;0.68;;;6.80;97.80;;;;;;9179847;19;20014;-74
2022/01/09 11:07:58;;;;;;;3.00;0.70;;;6.90;97.80;;;;;;9177301;19;20038;-75
2022/01/09 11:11:12;;;;;;;2.92;1.10;;;6.90;97.80;;;;;;9175018;19;20377;-75
2022/01/09 11:14:22;;;;;;;1.70;0.75;;;6.90;97.80;;;;;;9175551;19;21186;-75
2022/01/09 11:17:28;;;;;;;2.65;0.93;;;6.90;97.70;;;;;;9175799;19;20030;-74
2022/01/09 11:20:34;;;;;;;1.75;0.75;;;6.90;97.70;;;;;;9177326;19;20022;-74
2022/01/09 11:23:54;;;;;;;2.25;0.60;;;6.90;97.70;;;;;;9179488;19;20014;-74
2022/01/09 11:27:11;;;;;;;2.75;0.90;;;6.90;97.70;;;;;;9177440;19;20041;-74
2022/01/09 11:30:22;;;;;;;0.95;0.50;;;7.00;97.80;;;;;;9174211;19;20018;-74
2022/01/09 11:33:45;;;;;;;1.88;0.60;;;7.00;97.80;;;;;;9177277;19;20122;-74
2022/01/09 11:37:03;;;;;;;1.48;0.70;;;7.00;97.80;;;;;;9176755;19;20405;-74
2022/01/09 11:40:23;;;;;;;3.05;0.68;;;7.00;97.80;;;;;;9175742;19;20007;-74
2022/01/09 11:43:31;;;;;;;2.03;0.60;;;7.10;97.90;;;;;;9174689;19;20110;-74
2022/01/09 11:46:58;;;;;;;3.13;0.70;;;7.10;97.90;;;;;;9178257;19;20049;-74
2022/01/09 11:50:12;;;;;;;1.30;0.60;;;7.10;97.80;;;;;;9181858;19;20090;-75
2022/01/09 11:53:17;;;;;;;1.13;0.82;;;7.10;97.90;;;;;;9182490;19;20023;-74
2022/01/09 11:56:55;;;;;;;1.73;0.68;;;7.20;97.90;;;;;;9187312;19;20021;-75
2022/01/09 12:00:35;;;;;;;2.97;0.95;;;7.20;97.90;;;;;;9181325;19;20014;-74
2022/01/09 12:03:40;;;;;;;2.30;1.00;;;7.30;97.90;;;;;;9181377;19;20011;-75
2022/01/09 12:06:46;;;;;;;1.65;0.98;;;7.30;97.90;;;;;;9182657;19;20018;-74
2022/01/09 12:09:53;;;;;;;2.33;0.93;;;7.30;97.90;;;;;;9180347;19;20052;-74
2022/01/09 12:12:59;;;;;;;1.92;0.73;;;7.40;97.90;;;;;;9183091;19;20018;-74
2022/01/09 12:16:08;;;;;;;1.25;0.38;;;7.40;97.90;;;;;;9181197;19;20010;-75
2022/01/09 12:19:13;;;;;;;1.92;0.70;;;7.40;97.80;;;;;;9176714;19;20018;-75
2022/01/09 12:23:01;;;;;;;3.15;0.60;;;7.50;97.90;;;;;;9184585;19;20061;-74
2022/01/09 12:26:07;;;;;;;2.95;0.50;;;7.50;97.80;;;;;;9179533;19;20345;-75
2022/01/09 12:29:12;;;;;;;0.85;0.38;;;7.50;97.90;;;;;;9181801;19;20030;-74
2022/01/09 12:32:44;;;;;;;1.27;0.45;;;7.60;97.80;;;;;;9181551;19;20031;-74
2022/01/09 12:35:56;;;;;;;1.50;0.55;;;7.60;97.80;;;;;;9180300;19;20471;-74
2022/01/09 12:39:05;;;;;;;1.10;0.52;;;7.60;97.80;;;;;;9181274;19;20018;-75
2022/01/09 12:42:10;;;;;;;0.98;0.32;;;7.70;97.80;;;;;;9182321;19;20048;-74
2022/01/09 12:45:21;;;;;;;0.88;0.25;;;7.70;97.80;;;;;;9187307;19;20006;-74
2022/01/09 12:48:32;;;;;;;1.00;0.50;;;7.70;97.70;;;;;;9181645;19;20019;-74
2022/01/09 12:51:39;;;;;;;1.60;0.50;;;7.70;97.60;;;;;;9179262;19;20014;-75
2022/01/09 12:54:44;;;;;;;1.02;0.43;;;7.70;97.60;;;;;;9180797;19;20026;-75
2022/01/09 12:57:54;;;;;;;1.35;0.50;;;7.70;97.50;;;;;;9181371;19;20018;-75
2022/01/09 13:01:01;;;;;;;0.90;0.30;;;7.70;97.50;;;;;;9182733;19;20010;-75
2022/01/09 13:04:14;;;;;;;0.73;0.30;;;7.70;97.50;;;;;;9181966;19;20062;-75
2022/01/09 13:07:20;;;;;;;1.08;0.30;;;7.70;97.50;;;;;;9185757;19;20015;-74
2022/01/09 13:10:34;;;;;;;1.48;0.35;;;7.70;97.50;;;;;;9184078;19;20060;-75
2022/01/09 13:13:45;;;;;;;0.70;0.30;;;7.70;97.40;;;;;;9182811;19;20384;-75
2022/01/09 13:16:53;;;;;;;0.50;0.30;;;7.60;97.40;;;;;;9181825;19;20389;-75
2022/01/09 13:20:19;;;;;;;0.70;0.30;;;7.60;97.30;;;;;;9181318;19;20026;-75
2022/01/09 13:23:26;;;;;;;1.15;0.40;;;7.60;97.30;;;;;;9181994;19;20023;-75
2022/01/09 13:26:34;;;;;;;1.00;0.32;;;7.60;97.20;;;;;;9183842;19;20085;-76
2022/01/09 13:29:42;;;;;;;1.30;0.40;;;7.60;97.30;;;;;;9180371;19;20642;-75
2022/01/09 13:32:48;;;;;;;0.68;0.45;;;7.50;97.20;;;;;;9183322;19;20014;-75
2022/01/09 13:35:56;;;;;;;0.90;0.32;;;7.50;97.20;;;;;;9182623;19;20029;-75
2022/01/09 13:39:03;;;;;;;0.60;0.52;;;7.40;97.10;;;;;;9180116;19;20029;-75
2022/01/09 13:42:12;;;;;;;1.65;0.60;;;7.40;97.10;;;;;;9180059;19;20018;-75
2022/01/09 13:45:21;;;;;;;1.73;0.45;;;7.40;97.10;;;;;;9181913;19;20011;-75
2022/01/09 13:48:27;;;;;;;1.27;0.50;;;7.40;97.10;;;;;;9182650;19;20014;-75
2022/01/09 13:51:49;;;;;;;2.08;1.05;;;7.30;97.10;;;;;;9179692;19;20026;-75
2022/01/09 13:54:59;;;;;;;2.28;1.00;;;7.30;97.10;;;;;;9179469;19;20019;-75
2022/01/09 13:58:07;;;;;;;1.08;0.50;;;7.20;97.10;;;;;;9183106;19;20353;-75
2022/01/09 14:01:12;;;;;;;1.65;0.65;;;7.20;97.20;;;;;;9182840;19;20014;-75
2022/01/09 14:04:20;;;;;;;1.85;0.82;;;7.20;97.20;;;;;;9182241;19;20011;-75
2022/01/09 14:07:31;;;;;;;1.48;0.63;;;7.20;97.20;;;;;;9184345;19;20380;-75
2022/01/09 14:10:38;;;;;;;1.73;0.50;;;7.10;97.20;;;;;;9186393;19;20007;-75
2022/01/09 14:13:44;;;;;;;1.10;0.47;;;7.10;97.20;;;;;;9182825;19;20361;-75
2022/01/09 14:16:49;;;;;;;0.90;0.40;;;7.10;97.20;;;;;;9184681;19;20491;-75
2022/01/09 14:19:54;;;;;;;2.08;0.77;;;7.10;97.20;;;;;;9183038;19;20349;-75
2022/01/09 14:23:11;;;;;;;3.58;0.90;;;7.10;97.20;;;;;;9181196;19;20030;-76
2022/01/09 14:26:17;;;;;;;2.72;0.82;;;7.10;97.20;;;;;;9184661;19;20508;-75
2022/01/09 14:29:36;;;;;;;1.88;0.65;;;7.00;97.20;;;;;;9185684;19;20007;-75
2022/01/09 14:32:41;;;;;;;2.30;0.60;;;7.00;97.20;;;;;;9182376;19;20364;-75
2022/01/09 14:35:48;;;;;;;1.98;0.52;;;7.00;97.20;;;;;;9183092;19;20014;-75
2022/01/09 14:38:57;;;;;;;3.05;0.98;;;7.00;97.20;;;;;;9182522;19;20018;-75
2022/01/09 14:42:06;;;;;;;1.42;0.70;;;7.00;97.20;;;;;;9183940;19;20387;-75
2022/01/09 14:45:11;;;;;;;1.35;0.70;;;6.90;97.10;;;;;;9183320;19;20038;-75
2022/01/09 14:48:16;;;;;;;2.30;0.60;;;6.90;97.10;;;;;;9184162;19;20010;-75
2022/01/09 14:51:22;;;;;;;1.45;0.55;;;6.90;97.10;;;;;;9181404;19;20017;-75
2022/01/09 14:54:29;;;;;;;3.33;0.90;;;6.90;97.10;;;;;;9181255;19;20502;-75
2022/01/09 14:57:34;;;;;;;1.10;0.60;;;6.90;97.10;;;;;;9181502;19;20052;-75
2022/01/09 15:00:39;;;;;;;1.58;0.57;;;6.80;97.10;;;;;;9179380;19;20460;-75
2022/01/09 15:03:45;;;;;;;1.95;0.93;;;6.80;97.10;;;;;;9182550;19;20042;-75
2022/01/09 15:06:52;;;;;;;1.75;0.90;;;6.80;97.00;;;;;;9181009;19;20021;-75
2022/01/09 15:10:00;;;;;;;1.52;0.60;;;6.70;97.00;;;;;;9183631;19;20014;-75
2022/01/09 15:13:06;;;;;;;3.65;0.80;;;6.70;97.30;;;;;;9184831;19;20011;-75
2022/01/09 15:16:12;;;;;;;1.67;0.80;;;6.70;97.10;;;;;;9185243;19;20464;-75
2022/01/09 15:19:17;;;;;;;1.88;0.80;;;6.60;97.10;;;;;;9182117;19;20014;-75
2022/01/09 15:22:22;;;;;;;2.20;0.82;;;6.70;97.10;;;;;;9188885;19;20214;-75
2022/01/09 15:25:30;;;;;;;3.53;0.93;;;6.60;97.10;;;;;;9192212;19;20015;-75
2022/01/09 15:28:38;;;;;;;2.30;0.68;;;6.60;97.10;;;;;;9191573;19;20015;-75
2022/01/09 15:31:43;;;;;;;2.40;0.80;;;6.60;97.10;;;;;;9186950;19;20357;-75
2022/01/09 15:34:48;;;;;;;2.10;0.57;;;6.50;97.00;;;;;;9189392;19;20014;-75
2022/01/09 15:37:53;;;;;;;2.35;0.60;;;6.50;97.00;;;;;;9191006;19;20385;-75
2022/01/09 15:41:00;;;;;;;2.75;0.80;;;6.50;97.00;;;;;;9187918;19;20007;-75
2022/01/09 15:44:06;;;;;;;3.95;0.88;;;6.50;97.00;;;;;;9188949;19;20023;-75
2022/01/09 15:47:11;;;;;;;2.35;0.70;;;6.40;97.30;;;;;;9187858;19;20497;-75
2022/01/09 15:50:17;;;;;;;2.00;0.68;;;6.40;97.00;;;;;;9188219;19;20737;-75
2022/01/09 15:53:23;;;;;;;2.28;0.80;;;6.40;97.00;;;;;;9185182;19;20330;-75
2022/01/09 15:56:30;;;;;;;4.93;1.30;;;6.40;97.00;;;;;;9187218;19;20353;-75
2022/01/09 15:59:35;;;;;;;1.05;0.63;;;6.30;97.00;;;;;;9187167;19;20015;-75
2022/01/09 16:02:41;;;;;;;3.40;0.82;;;6.30;97.00;;;;;;9184710;19;20010;-75
2022/01/09 16:05:46;;;;;;;3.47;1.17;;;6.30;97.00;;;;;;9187689;19;20018;-75
2022/01/09 16:08:55;;;;;;;3.55;1.42;;;6.20;96.90;;;;;;9186812;19;20691;-75
2022/01/09 16:12:08;;;;;;;2.10;0.80;;;6.20;97.00;;;;;;9185492;19;20785;-74
2022/01/09 16:15:13;;;;;;;1.42;0.80;;;6.20;97.00;;;;;;9185600;19;20387;-75
2022/01/09 16:18:18;;;;;;;2.15;1.00;;;6.10;97.00;;;;;;9187600;19;20030;-75
2022/01/09 16:21:23;;;;;;;1.98;1.05;;;6.10;97.00;;;;;;9186622;19;20018;-75
2022/01/09 16:24:28;;;;;;;3.75;1.15;;;6.10;97.00;;;;;;9187951;19;20011;-75
2022/01/09 16:27:35;;;;;;;2.17;0.98;;;6.10;97.00;;;;;;9189239;19;20022;-75
2022/01/09 16:30:42;;;;;;;2.65;0.95;;;6.00;97.00;;;;;;9187174;19;20029;-75
2022/01/09 16:33:50;;;;;;;2.35;1.02;;;6.00;97.00;;;;;;9182457;19;20026;-75